Flight Track Log - Related Links

Times and Time Zones

All times are in EDT time to prevent confusion due to time zone crossing. See the THU850 flight status page for this flight to view local times or setup timezone preferences in your user account.

Time Position Orientation Groundspeed Altitude Reporting Facility
EDT Latitude Longitude Course Direction KTS MPH feet Rate Location/Type
Sun 06:34:11 PM 43.0833 -81.1833 340° North 210 242 2,800  Level Toronto Center
Sun 06:35:11 PM 43.1333 -81.2167 334° Northwest 210 242 4,600 1,750 Climbing Toronto Center
Sun 06:36:11 PM 43.1833 -81.2167 360° North 190 219 6,300 1,700 Climbing Toronto Center
Sun 06:37:11 PM 43.2333 -81.2333 346° North 190 219 8,000 1,550 Climbing Toronto Center
Sun 06:38:00 PM 43.4718 -81.3442 340° North  Level FlightAware Approximate
Sun 06:38:11 PM 43.2833 -81.2667 334° Northwest 190 219 9,400  Level Toronto Center
Sun 06:39:00 PM 43.5359 -81.3763 340° North  Level FlightAware Approximate
Sun 06:39:11 PM 43.3500 -81.2833 350° North 200 230 10,600  Level Toronto Center
Sun 06:40:11 PM 43.4000 -81.3000 346° North 210 242 11,900 1,150 Climbing Toronto Center
Sun 06:41:11 PM 43.4500 -81.3333 334° Northwest 220 253 12,900 1,000 Climbing Toronto Center
Sun 06:42:11 PM 43.5167 -81.3500 350° North 220 253 13,900 1,000 Climbing Toronto Center
Sun 06:43:11 PM 43.5667 -81.3833 334° Northwest 230 265 14,900 1,000 Climbing Toronto Center
Sun 06:44:11 PM 43.6333 -81.4333 332° Northwest 220 253 15,900 950 Climbing Toronto Center
Sun 06:45:11 PM 43.7000 -81.4333 360° North 230 265 16,800 893 Climbing Toronto Center
Sun 06:46:12 PM 43.7500 -81.4833 324° Northwest 220 253 17,700 843 Climbing Toronto Center
Sun 06:47:12 PM 43.8167 -81.5000 350° North 220 253 18,500 756 Climbing Toronto Center
Sun 06:48:11 PM 43.8667 -81.5333 334° Northwest 220 253 19,200 706 Climbing Toronto Center
Sun 06:49:11 PM 43.9333 -81.5500 350° North 230 265 19,900 600 Climbing Toronto Center
Sun 06:50:11 PM 44.0000 -81.5833 340° North 230 265 20,400 600 Climbing Toronto Center
Sun 06:51:11 PM 44.0500 -81.6000 347° North 230 265 21,100 600 Climbing Toronto Center
Sun 06:52:11 PM 44.1167 -81.6333 340° North 230 265 21,600 450 Climbing Toronto Center
Sun 06:53:11 PM 44.1833 -81.6833 332° Northwest 240 276 22,000 250 Climbing Toronto Center
Sun 06:54:11 PM 44.2500 -81.7000 350° North 250 288 22,100  Climbing Toronto Center
Sun 06:55:11 PM 44.3167 -81.7333 340° North 260 299 22,000 -50 Descending Toronto Center
Sun 06:56:11 PM 44.3833 -81.7833 332° Northwest 270 311 22,000  Level Toronto Center
Sun 06:57:11 PM 44.4500 -81.8000 350° North 270 311 22,000 -50 Level Toronto Center
Sun 06:58:11 PM 44.5333 -81.8333 344° North 270 311 21,900  Descending Toronto Center
Sun 06:59:11 PM 44.6000 -81.8500 350° North 270 311 22,000 50 Climbing Toronto Center
Sun 07:00:11 PM 44.6667 -81.9000 332° Northwest 270 311 22,000  Level Toronto Center
Sun 07:01:11 PM 44.7333 -81.9333 340° North 270 311 22,000  Level Toronto Center
Sun 07:02:11 PM 44.8000 -81.9667 340° North 260 299 22,000  Level Toronto Center
Sun 07:03:11 PM 44.8667 -81.9833 350° North 260 299 22,000 50 Level Toronto Center
Sun 07:04:11 PM 44.9333 -82.0333 332° Northwest 260 299 22,100 -50 Climbing Toronto Center
Sun 07:05:11 PM 45.0000 -82.0667 341° North 260 299 21,900 -50 Descending Toronto Center
Sun 07:06:11 PM 45.0667 -82.0833 350° North 260 299 22,000 50 Climbing Toronto Center
Sun 07:07:11 PM 45.1333 -82.1167 341° North 260 299 22,000  Level Toronto Center
Sun 07:08:11 PM 45.2000 -82.1333 350° North 260 299 22,000  Level Toronto Center
Sun 07:09:11 PM 45.2833 -82.2000 331° Northwest 260 299 22,000  Level Toronto Center
Sun 07:10:11 PM 45.3500 -82.2167 350° North 260 299 22,000  Level Toronto Center
Sun 07:11:12 PM 45.4000 -82.3000 311° West 260 299 22,000 50 Level Toronto Center
Sun 07:12:12 PM 45.4167 -82.3833 286° West 250 288 22,100  Climbing Toronto Center
Sun 07:13:12 PM 45.4667 -82.4667 311° West 250 288 22,000 -50 Descending Toronto Center
Sun 07:14:12 PM 45.5000 -82.5500 300° West 250 288 22,000  Level Toronto Center
Sun 07:15:12 PM 45.5500 -82.6333 311° West 260 299 22,000  Level Toronto Center
Sun 07:16:12 PM 45.5667 -82.7333 283° West 260 299 22,000 50 Level Toronto Center
Sun 07:17:12 PM 45.6167 -82.8000 317° Northwest 260 299 22,100  Climbing Toronto Center
Sun 07:18:12 PM 45.6667 -82.9000 306° West 260 299 22,000 -50 Descending Toronto Center
Sun 07:19:12 PM 45.7000 -82.9667 306° West 250 288 22,000  Level Toronto Center
Sun 07:20:12 PM 45.7500 -83.0500 311° West 250 288 22,000 50 Level Toronto Center
Sun 07:21:11 PM 45.7833 -83.1500 296° West 250 288 22,100  Climbing Toronto Center
Sun 07:22:12 PM 45.8167 -83.2167 306° West 250 288 22,000 -50 Descending Toronto Center
Sun 07:23:12 PM 45.8500 -83.3000 300° West 250 288 22,000  Level Toronto Center
Sun 07:24:12 PM 45.8833 -83.4000 296° West 250 288 22,000  Level Toronto Center
Sun 07:25:12 PM 45.9167 -83.4667 306° West 250 288 22,000  Level Toronto Center
Sun 07:26:11 PM 45.9667 -83.5667 306° West 250 288 22,000 50 Level Toronto Center
Sun 07:27:12 PM 46.0000 -83.6333 306° West 250 288 22,100  Climbing Toronto Center
Sun 07:28:12 PM 46.0500 -83.7167 311° West 250 288 22,000 -50 Descending Toronto Center
Sun 07:29:12 PM 46.0667 -83.8167 284° West 250 288 22,000 50 Level Toronto Center
Sun 07:30:12 PM 46.1167 -83.8833 317° Northwest 250 288 22,100  Climbing Toronto Center
Sun 07:31:12 PM 46.1500 -83.9667 300° West 250 288 22,000 -50 Descending Toronto Center
Sun 07:32:11 PM 46.2000 -84.0333 317° Northwest 250 288 22,000  Level Toronto Center
Sun 07:33:12 PM 46.2500 -84.1333 306° West 250 288 22,000 50 Level Toronto Center
Sun 07:34:12 PM 46.2833 -84.2167 300° West 250 288 22,100 50 Climbing Toronto Center
Sun 07:35:12 PM 46.3000 -84.2833 290° West 240 276 22,100 -50 Level Toronto Center
Sun 07:36:12 PM 46.3500 -84.3833 306° West 240 276 22,000  Descending Toronto Center
Sun 07:37:12 PM 46.3833 -84.4667 300° West 240 276 22,100  Climbing Toronto Center
Sun 07:38:12 PM 46.4167 -84.5500 300° West 240 276 22,000 -50 Descending Toronto Center
Sun 07:39:12 PM 46.4500 -84.6500 296° West 240 276 22,000  Level Toronto Center
Sun 07:40:12 PM 46.4833 -84.7167 306° West 240 276 22,000  Level Toronto Center
Sun 07:41:12 PM 46.5333 -84.8000 311° West 240 276 22,000  Level Toronto Center
Sun 07:42:12 PM 46.5667 -84.8667 306° West 240 276 22,000  Level Toronto Center
Sun 07:43:12 PM 46.6000 -84.9667 296° West 250 288 22,000  Level Toronto Center
Sun 07:44:11 PM 46.6333 -85.0500 300° West 240 276 22,000  Level Toronto Center
Sun 07:45:17 PM 46.6667 -85.0833 326° Northwest 250 288 22,000  Level Winnipeg Center
Sun 07:46:11 PM 46.7167 -85.2000 302° West 250 288 22,000  Level Toronto Center
Sun 07:47:11 PM 46.7500 -85.3000 296° West 250 288 22,000  Level Toronto Center
Sun 07:48:11 PM 46.7833 -85.3833 300° West 250 288 22,000 50 Level Toronto Center
Sun 07:49:11 PM 46.8167 -85.4500 306° West 250 288 22,100  Climbing Toronto Center
Sun 07:50:11 PM 46.8500 -85.5500 296° West 250 288 22,000 -100 Descending Toronto Center
Sun 07:51:11 PM 46.8833 -85.6333 300° West 250 288 21,900  Descending Toronto Center
Sun 07:52:11 PM 46.9167 -85.7333 296° West 250 288 22,000 50 Climbing Toronto Center
Sun 07:53:11 PM 46.9500 -85.8167 300° West 250 288 22,000  Level Toronto Center
Sun 07:54:11 PM 47.0000 -85.8833 318° Northwest 250 288 22,000  Level Toronto Center
Sun 07:55:12 PM 47.0333 -86.0000 293° West 250 288 22,000  Level Toronto Center
Sun 07:56:11 PM 47.0500 -86.0667 290° West 250 288 22,000  Level Toronto Center
Sun 07:57:18 PM 47.1000 -86.1333 318° Northwest 250 288 22,000  Level Winnipeg Center
Sun 07:58:11 PM 47.1333 -86.2500 293° West 250 288 22,000  Level Toronto Center
Sun 07:59:18 PM 47.1667 -86.2833 326° Northwest 250 288 22,000 47 Level Winnipeg Center
Sun 08:00:18 PM 47.2167 -86.3667 311° West 250 288 22,100  Climbing Winnipeg Center
Sun 08:01:11 PM 47.2500 -86.5167 288° West 250 288 22,000 -53 Descending Toronto Center
Sun 08:02:11 PM 47.2833 -86.5833 306° West 260 299 22,000  Level Toronto Center
Sun 08:03:11 PM 47.3167 -86.7000 293° West 260 299 22,000  Level Toronto Center
Sun 08:04:11 PM 47.3667 -86.7667 318° Northwest 260 299 22,000  Level Toronto Center
Sun 08:05:18 PM 47.3833 -86.8333 290° West 260 299 22,000  Level Winnipeg Center
Sun 08:06:18 PM 47.4167 -86.9333 296° West 260 299 22,000  Level Winnipeg Center
Sun 08:07:18 PM 47.4500 -87.0167 301° West 260 299 22,000 50 Level Winnipeg Center
Sun 08:08:18 PM 47.5000 -87.0833 318° Northwest 260 299 22,100 50 Climbing Winnipeg Center
Sun 08:09:18 PM 47.5333 -87.2000 293° West 260 299 22,100 -50 Level Winnipeg Center
Sun 08:10:18 PM 47.5667 -87.3000 296° West 260 299 22,000  Descending Winnipeg Center
Sun 08:11:18 PM 47.6000 -87.3667 307° West 260 299 22,100  Climbing Winnipeg Center
Sun 08:12:18 PM 47.6500 -87.4500 312° West 260 299 22,000  Descending Winnipeg Center
Sun 08:13:18 PM 47.6667 -87.5500 284° West 260 299 22,100  Climbing Winnipeg Center
Sun 08:14:18 PM 47.7167 -87.6333 312° West 260 299 22,000 -50 Descending Winnipeg Center
Sun 08:15:18 PM 47.7500 -87.7333 296° West 260 299 22,000  Level Winnipeg Center
Sun 08:16:18 PM 47.8000 -87.8167 312° West 260 299 22,000  Level Winnipeg Center
Sun 08:17:18 PM 47.8333 -87.9167 296° West 260 299 22,000  Level Winnipeg Center
Sun 08:18:18 PM 47.8667 -88.0167 296° West 260 299 22,000 -950 Level Winnipeg Center
Sun 08:19:18 PM 47.9000 -88.1000 301° West 280 322 20,100 -1,850 Descending Winnipeg Center
Sun 08:20:18 PM 47.9500 -88.2167 303° West 310 357 18,300 -1,900 Descending Winnipeg Center
Sun 08:21:18 PM 47.9667 -88.3500 281° West 310 357 16,300 -1,900 Descending Winnipeg Center
Sun 08:22:18 PM 48.0000 -88.4667 293° West 300 345 14,500 -1,650 Descending Winnipeg Center
Sun 08:23:18 PM 48.0333 -88.5500 301° West 290 334 13,000 -1,550 Descending Winnipeg Center
Sun 08:24:18 PM 48.0667 -88.6833 291° West 280 322 11,400 -1,400 Descending Winnipeg Center
Sun 08:25:18 PM 48.0833 -88.7833 284° West 270 311 10,200 -1,350 Descending Winnipeg Center
Sun 08:26:18 PM 48.1333 -88.8667 312° West 270 311 8,700 -1,350 Descending Winnipeg Center
Sun 08:27:18 PM 48.1333 -89.0000 270° West 270 311 7,500 -1,150 Descending Winnipeg Center
Sun 08:28:18 PM 48.1500 -89.1000 284° West 260 299 6,400 -1,050 Descending Winnipeg Center
Sun 08:29:18 PM 48.1667 -89.1833 287° West 250 288 5,400 -650 Descending Winnipeg Center
Sun 08:30:18 PM 48.1833 -89.2833 284° West 250 288 5,100 -150 Descending Winnipeg Center
Sun 08:31:18 PM 48.2000 -89.3833 284° West 220 253 5,100 -350 Level Winnipeg Center
Sun 08:32:18 PM 48.2167 -89.4833 284° West 220 253 4,400 -800 Descending Winnipeg Center
Sun 08:33:18 PM 48.2500 -89.5500 307° West 210 242 3,500 -650 Descending Winnipeg Center
Sun 08:34:18 PM 48.3000 -89.5500 360° North 170 196 3,100 -250 Descending Winnipeg Center
Sun 08:35:18 PM 48.3000 -89.5000 90° East 150 173 3,000 -200 Descending Winnipeg Center
Sun 08:36:18 PM 48.3167 -89.4500 63° Northeast 130 150 2,700 -500 Descending Winnipeg Center
Sun 08:37:18 PM 48.3333 -89.3833 69° East 110 127 2,000 -700 Descending Winnipeg Center
Sun 08:38:18 PM 48.3500 -89.3333 63° Northeast 110 127 1,300 -600 Descending Winnipeg Center
Sun 08:39:18 PM 48.3500 -89.3167 90° East 110 127 800 -300 Descending Winnipeg Center
Sun 08:40:18 PM 48.3667 -89.2833 53° Northeast 30 35 700 -100 Descending Winnipeg Center

Login

Don't have an account? Register now (free) for customized features, flight alerts, and more!